In Rescue
 
Open Full Screen Window  High Contrast Mode
Wind Gusting 21 knots
15
May 19, 2019 2:30 PM EDT
Present Weather: Rain
Weather Information
Wind Direction
  200 °
Wind Speed
  15 kt (17 mph)
Wind Gust
  21 kt (24 mph)
Altimeter
29.69 in
Visibility
7 SM
Temperature
22° C
72° F
Dewpoint
18° C
64° F
Humidity
78%
1hr Rain Fall
00.01 in.
24hr Rain Fall
00.01 in.
Sky Condition
Overcast @ 6,500 ft
Broken @ 5,500 ft
Scattered @ 4,400 ft
VFR

METAR KD95 191830Z AUTO 20015G21KT 7SM RA SCT044 BKN055 OVC065 22/18 A2969 RMK AO2 P0001 T02180184

FAA Disclaimer: The data displayed is for advisory purposes only and is not to be used for flight planning or operations.